Time;durP1;ratioP1;P1;durP2;ratioP2;P2;SDS_P1;SDS_P2;PMS_P1;PMS_P2;Temp;Humidity;BMP_temperature;BMP_pressure;BME280_temperature;BME280_humidity;BME280_pressure;Samples;Min_cycle;Max_cycle;Signal;HPM_P1;HPM_P2
2023/12/13 00:00:32;;;;;;;69.60;29.90;;;;;;;0.30;99.27;99305.99;106324;1254;73631;-76
2023/12/13 00:03:01;;;;;;;58.20;29.60;;;;;;;0.40;98.85;99300.56;107085;1256;70156;-76
2023/12/13 00:05:28;;;;;;;63.70;32.10;;;;;;;0.50;98.49;99300.83;106488;1254;71312;-78
2023/12/13 00:07:55;;;;;;;63.20;31.50;;;;;;;0.53;98.99;99304.84;106161;1254;60789;-76
2023/12/13 00:10:22;;;;;;;67.30;34.50;;;;;;;0.50;99.05;99308.70;106395;1256;60373;-77
2023/12/13 00:12:49;;;;;;;64.20;31.30;;;;;;;0.48;99.28;99310.45;106273;1254;73798;-79
2023/12/13 00:15:16;;;;;;;61.20;31.20;;;;;;;0.53;98.84;99315.08;106621;1255;68935;-79
2023/12/13 00:17:43;;;;;;;65.10;33.20;;;;;;;0.59;98.39;99319.72;107176;1253;71445;-78
2023/12/13 00:20:10;;;;;;;67.10;34.90;;;;;;;0.54;98.15;99322.02;108643;1254;58302;-80
2023/12/13 00:22:37;;;;;;;68.70;34.90;;;;;;;0.49;98.53;99320.83;105783;1257;60768;-78
2023/12/13 00:25:04;;;;;;;56.90;30.30;;;;;;;0.48;98.69;99321.90;106001;1254;72418;-78
2023/12/13 00:27:31;;;;;;;62.90;32.80;;;;;;;0.58;98.33;99322.43;105786;1254;70316;-77
2023/12/13 00:29:58;;;;;;;60.80;31.30;;;;;;;0.63;97.97;99323.59;106930;1253;72563;-77
2023/12/13 00:32:25;;;;;;;66.90;35.50;;;;;;;0.58;98.07;99322.08;107792;1254;59580;-79
2023/12/13 00:34:53;;;;;;;63.20;34.90;;;;;;;0.53;98.51;99318.78;106954;1254;60418;-80
2023/12/13 00:37:20;;;;;;;64.60;32.50;;;;;;;0.51;98.86;99313.48;106022;1254;73764;-78
2023/12/13 00:39:47;;;;;;;62.70;33.20;;;;;;;0.59;98.52;99312.54;105729;1256;68967;-79
2023/12/13 00:42:14;;;;;;;64.60;33.80;;;;;;;0.65;98.23;99314.38;105442;1257;243838;-80
2023/12/13 00:46:59;;;;;;;62.30;33.70;;;;;;;0.58;98.65;99314.52;102670;1305;604966;-75
2023/12/13 00:49:26;;;;;;;62.40;32.00;;;;;;;0.59;98.46;99316.23;105158;1267;59312;-77
2023/12/13 00:51:52;;;;;;;60.40;33.50;;;;;;;0.66;98.12;99311.04;105674;1260;59258;-76
2023/12/13 00:54:19;;;;;;;62.60;33.50;;;;;;;0.63;98.00;99311.27;106781;1260;72210;-79
2023/12/13 00:56:46;;;;;;;65.10;33.30;;;;;;;0.57;98.49;99313.38;106418;1261;69009;-78
2023/12/13 00:59:13;;;;;;;68.00;32.10;;;;;;;0.53;98.97;99308.47;105973;1257;170077;-76
2023/12/13 01:01:43;;;;;;;57.80;31.50;;;;;;;0.61;98.93;99306.02;106393;1263;62157;-75
2023/12/13 01:04:11;;;;;;;65.80;31.60;;;;;;;0.66;98.50;99307.20;105620;1258;59752;-75
2023/12/13 01:06:38;;;;;;;60.20;32.20;;;;;;;0.61;98.85;99303.35;105689;1260;72183;-75
2023/12/13 01:09:04;;;;;;;63.00;32.70;;;;;;;0.55;99.16;99295.27;105723;1257;70360;-74
2023/12/13 01:11:31;;;;;;;64.40;32.00;;;;;;;0.54;99.38;99288.73;105746;1257;72608;-73
2023/12/13 01:13:58;;;;;;;67.00;33.00;;;;;;;0.66;99.18;99283.34;105572;1264;61007;-73
2023/12/13 01:16:25;;;;;;;64.50;33.00;;;;;;;0.71;98.88;99287.77;105513;1257;60359;-75
2023/12/13 01:18:52;;;;;;;68.00;36.50;;;;;;;0.69;99.07;99289.33;105439;1257;71861;-77
2023/12/13 01:21:18;;;;;;;65.10;32.30;;;;;;;0.65;99.49;99294.15;105472;1260;69759;-73
2023/12/13 01:23:45;;;;;;;64.00;31.90;;;;;;;0.64;99.56;99295.80;105539;1258;72407;-74
2023/12/13 01:26:12;;;;;;;61.60;31.90;;;;;;;0.72;99.23;99291.16;105609;1257;61483;-75
2023/12/13 01:28:39;;;;;;;56.20;30.30;;;;;;;0.78;98.73;99290.06;105527;1256;59510;-71
2023/12/13 01:31:07;;;;;;;69.80;35.10;;;;;;;0.75;99.02;99291.16;105596;1258;72933;-72
2023/12/13 01:33:34;;;;;;;74.40;35.80;;;;;;;0.69;99.15;99294.77;105585;1258;69690;-75
2023/12/13 01:36:02;;;;;;;58.30;29.40;;;;;;;0.62;98.89;99297.56;105629;1260;71113;-74
2023/12/13 01:38:29;;;;;;;58.40;29.50;;;;;;;0.65;98.59;99297.71;105656;1257;61177;-75
2023/12/13 01:40:56;;;;;;;63.10;33.20;;;;;;;0.72;98.48;99298.36;105553;1260;59762;-74
2023/12/13 01:43:43;;;;;;;;;;;;;;;0.70;98.87;99300.06;105594;1258;71558;-75
2023/12/13 01:46:12;;;;;;;69.70;33.40;;;;;;;0.67;99.23;99302.75;105516;1257;70487;-76
2023/12/13 01:48:39;;;;;;;69.30;34.50;;;;;;;0.63;99.29;99301.98;105575;1264;70973;-76
2023/12/13 01:51:06;;;;;;;60.20;32.80;;;;;;;0.70;99.20;99300.08;105618;1257;61296;-74
2023/12/13 01:53:33;;;;;;;74.20;36.30;;;;;;;0.75;98.61;99299.53;106444;1256;60291;-75
2023/12/13 01:56:01;;;;;;;67.80;36.50;;;;;;;0.68;98.69;99299.36;105936;1258;72743;-76
2023/12/13 01:58:28;;;;;;;68.30;35.30;;;;;;;0.63;99.10;99299.20;105605;1262;70632;-76
2023/12/13 02:00:55;;;;;;;65.90;33.50;;;;;;;0.61;99.06;99292.23;105676;1256;72790;-75
2023/12/13 02:03:22;;;;;;;69.90;35.60;;;;;;;0.68;98.74;99292.34;105447;1263;59853;-74
2023/12/13 02:05:51;;;;;;;73.50;35.90;;;;;;;0.71;98.75;99292.49;105520;1260;59631;-73
2023/12/13 02:08:18;;;;;;;68.00;37.60;;;;;;;0.68;99.01;99292.58;105588;1257;71551;-75
2023/12/13 02:10:48;;;;;;;69.20;35.30;;;;;;;0.63;99.52;99296.40;105548;1258;70316;-74
2023/12/13 02:13:16;;;;;;;66.80;33.50;;;;;;;0.66;99.09;99292.72;105759;1261;72599;-75
2023/12/13 02:15:43;;;;;;;63.90;33.60;;;;;;;0.70;98.80;99294.31;105701;1260;59638;-75
2023/12/13 02:18:10;;;;;;;64.50;33.90;;;;;;;0.66;99.23;99293.41;105606;1260;61207;-73
2023/12/13 02:20:37;;;;;;;63.00;32.40;;;;;;;0.61;99.57;99293.41;105614;1257;71724;-72
2023/12/13 02:23:03;;;;;;;58.60;32.20;;;;;;;0.62;99.58;99294.26;105600;1261;70147;-73
2023/12/13 02:25:36;;;;;;;58.20;31.30;;;;;;;0.68;99.23;99295.39;105634;1257;72690;-73
2023/12/13 02:28:07;;;;;;;63.10;33.50;;;;;;;0.64;99.16;99299.29;105599;1260;59719;-73
2023/12/13 02:30:34;;;;;;;62.70;32.30;;;;;;;0.56;99.51;99294.30;105533;1257;60039;-73
2023/12/13 02:33:00;;;;;;;57.90;30.10;;;;;;;0.53;99.98;99298.73;105795;1256;72951;-73
2023/12/13 02:35:27;;;;;;;58.40;31.60;;;;;;;0.58;99.76;99300.79;105799;1260;70334;-73
2023/12/13 02:37:54;;;;;;;54.10;30.20;;;;;;;0.57;99.82;99300.99;105639;1261;71367;-73
2023/12/13 02:40:22;;;;;;;57.60;30.00;;;;;;;0.52;100.00;99297.91;105548;1262;59657;-73
2023/12/13 02:42:49;;;;;;;45.70;25.40;;;;;;;0.49;100.00;99302.50;105676;1261;59660;-72
2023/12/13 02:45:16;;;;;;;53.40;27.80;;;;;;;0.56;100.00;99304.25;105647;1256;72905;-71
2023/12/13 02:47:42;;;;;;;50.20;28.10;;;;;;;0.64;100.00;99298.30;105506;1258;70112;-72
2023/12/13 02:50:11;;;;;;;53.30;29.90;;;;;;;0.64;100.00;99296.40;105555;1257;72687;-73
2023/12/13 02:52:39;;;;;;;56.70;31.10;;;;;;;0.61;100.00;99295.54;105475;1257;59714;-74
2023/12/13 02:55:06;;;;;;;55.00;29.30;;;;;;;0.59;100.00;99298.43;105589;1257;60302;-74
2023/12/13 02:57:33;;;;;;;52.90;27.40;;;;;;;0.68;100.00;99300.95;105702;1260;72980;-72
2023/12/13 03:00:00;;;;;;;56.70;29.10;;;;;;;0.76;100.00;99302.60;105836;1256;68771;-74
2023/12/13 03:02:27;;;;;;;51.60;28.60;;;;;;;0.75;100.00;99303.32;105684;1257;72551;-73
2023/12/13 03:04:54;;;;;;;53.70;28.20;;;;;;;0.71;100.00;99305.73;105767;1256;59721;-72
2023/12/13 03:07:21;;;;;;;46.10;27.00;;;;;;;0.74;100.00;99304.78;106313;1257;59633;-72
2023/12/13 03:09:49;;;;;;;51.80;27.60;;;;;;;0.81;100.00;99309.55;105875;1260;71781;-73
2023/12/13 03:12:16;;;;;;;55.30;29.50;;;;;;;0.76;100.00;99313.39;105695;1257;70349;-73
2023/12/13 03:14:42;;;;;;;52.10;27.10;;;;;;;0.69;100.00;99310.81;105741;1257;70656;-74
2023/12/13 03:17:09;;;;;;;51.60;26.10;;;;;;;0.69;100.00;99317.98;105635;1256;61103;-71
2023/12/13 03:19:36;;;;;;;47.00;26.40;;;;;;;0.74;100.00;99325.54;105554;1256;60052;-73
2023/12/13 03:22:03;;;;;;;50.90;29.20;;;;;;;0.76;100.00;99320.38;105770;1257;72704;-75
2023/12/13 03:24:29;;;;;;;48.60;27.50;;;;;;;0.69;100.00;99319.85;105763;1260;70302;-75
2023/12/13 03:26:56;;;;;;;52.50;27.20;;;;;;;0.63;100.00;99325.38;105727;1259;71443;-75
2023/12/13 03:29:23;;;;;;;52.00;26.40;;;;;;;0.64;100.00;99332.45;105838;1256;59839;-71
2023/12/13 03:31:50;;;;;;;52.60;28.20;;;;;;;0.70;100.00;99330.79;105635;1261;59508;-75
2023/12/13 03:34:16;;;;;;;52.90;29.20;;;;;;;0.67;100.00;99331.63;105706;1257;72792;-75
2023/12/13 03:36:43;;;;;;;49.80;26.10;;;;;;;0.61;100.00;99339.63;105835;1254;69999;-74
2023/12/13 03:39:10;;;;;;;54.60;29.60;;;;;;;0.57;100.00;99340.60;105887;1254;71765;-72
2023/12/13 03:41:37;;;;;;;52.30;27.20;;;;;;;0.62;100.00;99337.13;105586;1254;61466;-74
2023/12/13 03:44:03;;;;;;;50.80;27.50;;;;;;;0.66;100.00;99341.02;105733;1259;60200;-74
2023/12/13 03:46:30;;;;;;;49.40;26.10;;;;;;;0.63;100.00;99344.00;105593;1260;71892;-75
2023/12/13 03:48:57;;;;;;;70.40;37.70;;;;;;;0.54;100.00;99343.29;106085;1257;70006;-73
2023/12/13 03:51:24;;;;;;;53.00;27.30;;;;;;;0.55;100.00;99345.07;105674;1254;71353;-73
2023/12/13 03:53:51;;;;;;;49.90;27.30;;;;;;;0.60;100.00;99342.50;105781;1259;59777;-74
2023/12/13 03:56:17;;;;;;;52.80;26.80;;;;;;;0.55;100.00;99347.52;105809;1256;59554;-72
2023/12/13 03:58:44;;;;;;;48.00;24.60;;;;;;;0.49;100.00;99342.77;105713;1254;71968;-72
2023/12/13 04:01:11;;;;;;;48.50;25.50;;;;;;;0.52;100.00;99349.02;106812;1251;70288;-72
2023/12/13 04:03:38;;;;;;;52.30;28.80;;;;;;;0.59;100.00;99349.73;106991;1251;72552;-72
2023/12/13 04:06:05;;;;;;;56.30;27.40;;;;;;;0.57;100.00;99349.84;107522;1251;59561;-74
2023/12/13 04:08:32;;;;;;;50.30;25.20;;;;;;;0.53;100.00;99344.52;106463;1254;59606;-75
2023/12/13 04:10:59;;;;;;;53.50;26.20;;;;;;;0.59;100.00;99346.02;106072;1253;70976;-73
2023/12/13 04:13:25;;;;;;;52.90;27.40;;;;;;;0.66;100.00;99349.03;106201;1251;69280;-73
2023/12/13 04:15:52;;;;;;;55.00;28.40;;;;;;;0.65;100.00;99351.17;107001;1254;72609;-72
2023/12/13 04:18:19;;;;;;;59.80;30.30;;;;;;;0.60;100.00;99347.34;106951;1255;61271;-72
2023/12/13 04:20:46;;;;;;;55.10;29.00;;;;;;;0.64;100.00;99341.66;106237;1251;59644;-73
2023/12/13 04:23:12;;;;;;;62.10;30.60;;;;;;;0.71;100.00;99334.30;106304;1256;71569;-73
2023/12/13 04:25:39;;;;;;;62.50;32.50;;;;;;;0.71;100.00;99339.00;106052;1254;68050;-73
2023/12/13 04:28:06;;;;;;;59.50;30.20;;;;;;;0.69;100.00;99340.02;106157;1251;72547;-72
2023/12/13 04:30:32;;;;;;;52.20;29.80;;;;;;;0.76;100.00;99335.73;105839;1251;60875;-72
2023/12/13 04:32:59;;;;;;;50.80;29.00;;;;;;;0.80;100.00;99331.42;106139;1253;60163;-73
2023/12/13 04:35:26;;;;;;;58.20;30.90;;;;;;;0.75;100.00;99339.09;106033;1258;71742;-72
2023/12/13 04:37:53;;;;;;;51.30;27.00;;;;;;;0.70;100.00;99339.96;106018;1256;68725;-74
2023/12/13 04:40:20;;;;;;;57.00;28.90;;;;;;;0.77;100.00;99335.63;105901;1254;71116;-73
2023/12/13 04:42:47;;;;;;;56.70;28.70;;;;;;;0.83;100.00;99334.97;106013;1253;59619;-74
2023/12/13 04:45:14;;;;;;;55.10;27.70;;;;;;;0.82;100.00;99337.73;105936;1256;60140;-74
2023/12/13 04:47:41;;;;;;;58.00;28.90;;;;;;;0.78;100.00;99335.03;105918;1253;72823;-74
2023/12/13 04:50:08;;;;;;;54.30;27.60;;;;;;;0.84;100.00;99336.85;106012;1251;70398;-76
2023/12/13 04:52:35;;;;;;;57.60;30.50;;;;;;;0.91;100.00;99338.40;106015;1253;72667;-75
2023/12/13 04:55:03;;;;;;;62.30;32.60;;;;;;;0.90;100.00;99343.33;105693;1255;60547;-77
2023/12/13 04:57:30;;;;;;;59.90;30.60;;;;;;;0.85;100.00;99344.79;105975;1256;60418;-75
2023/12/13 04:59:57;;;;;;;61.20;31.00;;;;;;;0.88;100.00;99341.95;106138;1251;72535;-74
2023/12/13 05:02:24;;;;;;;60.50;32.30;;;;;;;0.96;100.00;99344.95;106449;1253;69161;-77
2023/12/13 05:04:51;;;;;;;62.90;31.60;;;;;;;1.00;100.00;99344.36;106712;1252;71507;-77
2023/12/13 05:07:18;;;;;;;65.70;33.40;;;;;;;0.98;100.00;99342.76;106587;1253;60434;-76
2023/12/13 05:09:44;;;;;;;62.30;32.20;;;;;;;1.04;100.00;99346.84;105831;1251;60547;-76
2023/12/13 05:12:11;;;;;;;71.90;35.40;;;;;;;1.17;100.00;99347.96;106010;1251;72469;-77
2023/12/13 05:14:38;;;;;;;65.50;33.80;;;;;;;1.19;100.00;99351.65;105977;1253;70086;-77
2023/12/13 05:17:04;;;;;;;75.20;36.90;;;;;;;1.17;100.00;99354.38;106026;1254;72475;-76
2023/12/13 05:19:31;;;;;;;66.20;33.50;;;;;;;1.17;100.00;99356.64;106121;1253;60430;-75
2023/12/13 05:21:58;;;;;;;74.10;37.70;;;;;;;1.23;100.00;99357.79;106078;1253;60511;-76
2023/12/13 05:24:25;;;;;;;62.00;31.70;;;;;;;1.23;100.00;99365.30;105805;1253;73756;-74
2023/12/13 05:26:52;;;;;;;60.80;31.80;;;;;;;1.15;100.00;99364.81;105941;1256;68797;-75
2023/12/13 05:29:19;;;;;;;55.80;29.90;;;;;;;1.12;100.00;99362.48;106034;1252;73303;-74
2023/12/13 05:31:46;;;;;;;54.90;30.20;;;;;;;1.17;100.00;99361.86;106075;1256;60868;-76
2023/12/13 05:34:13;;;;;;;61.90;33.00;;;;;;;1.20;100.00;99363.61;105922;1256;60313;-78
2023/12/13 05:36:39;;;;;;;69.00;34.40;;;;;;;1.16;100.00;99358.83;105925;1253;72501;-74
2023/12/13 05:39:07;;;;;;;62.10;32.70;;;;;;;1.11;100.00;99360.77;106088;1251;70068;-77
2023/12/13 05:41:34;;;;;;;60.30;31.30;;;;;;;1.15;100.00;99363.10;106690;1251;71391;-75
2023/12/13 05:44:01;;;;;;;62.50;31.50;;;;;;;1.18;100.00;99360.92;107402;1255;60364;-76
2023/12/13 05:46:33;;;;;;;59.70;32.40;;;;;;;1.13;100.00;99359.02;107405;1253;60400;-74
2023/12/13 05:49:02;;;;;;;55.80;28.80;;;;;;;1.10;100.00;99355.77;105969;1253;72356;-75
2023/12/13 05:51:29;;;;;;;53.00;29.60;;;;;;;1.18;100.00;99356.41;106134;1251;70078;-76
2023/12/13 05:53:56;;;;;;;54.80;30.50;;;;;;;1.23;100.00;99359.66;106724;1251;72494;-75
2023/12/13 05:56:24;;;;;;;56.10;29.80;;;;;;;1.20;100.00;99360.95;106423;1251;60886;-76
2023/12/13 05:58:51;;;;;;;53.00;27.80;;;;;;;1.15;100.00;99365.71;106208;1253;60338;-75
2023/12/13 06:01:18;;;;;;;54.10;30.00;;;;;;;1.17;100.00;99366.75;106274;1252;72620;-79
2023/12/13 06:03:45;;;;;;;55.90;30.30;;;;;;;1.22;100.00;99364.30;106127;1251;70708;-79
2023/12/13 06:06:11;;;;;;;59.40;32.60;;;;;;;1.20;100.00;99369.89;106147;1251;71597;-79
2023/12/13 06:08:39;;;;;;;62.10;29.80;;;;;;;1.15;100.00;99372.19;106016;1251;60433;-79
2023/12/13 06:11:07;;;;;;;59.20;29.70;;;;;;;1.16;100.00;99372.64;106103;1251;60584;-78
2023/12/13 06:13:34;;;;;;;60.00;29.80;;;;;;;1.22;100.00;99370.40;106056;1253;73970;-78
2023/12/13 06:16:02;;;;;;;57.60;31.10;;;;;;;1.20;100.00;99372.52;106172;1251;68823;-80
2023/12/13 06:18:28;;;;;;;60.00;31.00;;;;;;;1.14;100.00;99369.80;106025;1251;72471;-78
2023/12/13 06:20:55;;;;;;;52.40;30.20;;;;;;;1.18;100.00;99374.36;106014;1257;60660;-78
2023/12/13 06:23:23;;;;;;;57.60;29.60;;;;;;;1.26;100.00;99379.91;106003;1251;60931;-76
2023/12/13 06:25:50;;;;;;;57.60;31.90;;;;;;;1.24;100.00;99381.62;106060;1256;73001;-77
2023/12/13 06:28:17;;;;;;;56.10;30.90;;;;;;;1.18;100.00;99384.33;105983;1256;68824;-80
2023/12/13 06:30:44;;;;;;;58.30;29.50;;;;;;;1.19;100.00;99378.67;106066;1256;73008;-78
2023/12/13 06:33:11;;;;;;;62.40;32.60;;;;;;;1.26;100.00;99378.67;106193;1256;60409;-77
2023/12/13 06:35:37;;;;;;;62.00;31.90;;;;;;;1.24;100.00;99378.80;106087;1254;60460;-78
2023/12/13 06:38:04;;;;;;;58.60;31.40;;;;;;;1.20;100.00;99384.17;107087;1253;73887;-79
2023/12/13 06:40:31;;;;;;;57.70;31.30;;;;;;;1.25;100.00;99385.40;107935;1251;69376;-81
2023/12/13 06:42:58;;;;;;;59.30;31.80;;;;;;;1.32;100.00;99381.13;106237;1254;71240;-77
2023/12/13 06:45:25;;;;;;;60.90;32.70;;;;;;;1.32;100.00;99385.54;105870;1253;60370;-78
2023/12/13 06:47:52;;;;;;;69.80;35.40;;;;;;;1.28;100.00;99392.27;108529;1253;60028;-79
2023/12/13 06:50:19;;;;;;;61.00;33.60;;;;;;;1.28;100.00;99390.69;109548;1251;72607;-85
2023/12/13 06:52:51;;;;;;;69.40;33.60;;;;;;;1.40;100.00;99391.52;108692;1251;70492;-87
2023/12/13 06:55:33;;;;;;;66.50;34.70;;;;;;;1.49;100.00;99394.30;107338;1253;71409;-84
2023/12/13 06:58:29;;;;;;;72.80;37.30;;;;;;;1.49;100.00;99400.48;106038;1258;60757;-84
2023/12/13 07:00:57;;;;;;;77.50;36.10;;;;;;;1.47;100.00;99399.54;106326;1261;60546;-84
2023/12/13 07:03:28;;;;;;;65.10;34.80;;;;;;;1.56;100.00;99395.72;105964;1264;76353;-83
2023/12/13 07:06:06;;;;;;;69.40;35.70;;;;;;;1.64;100.00;99395.61;106031;1257;71418;-85
2023/12/13 07:08:42;;;;;;;64.20;34.40;;;;;;;1.57;100.00;99390.20;106869;1257;74949;-85
2023/12/13 07:11:20;;;;;;;61.70;31.80;;;;;;;1.60;100.00;99402.11;106902;1257;61612;-84
2023/12/13 07:13:57;;;;;;;69.70;35.30;;;;;;;1.62;100.00;99402.23;106208;1258;61747;-84
2023/12/13 07:16:28;;;;;;;60.80;34.40;;;;;;;1.66;100.00;99399.34;106227;1251;73645;-84
2023/12/13 07:19:03;;;;;;;64.00;35.20;;;;;;;1.65;100.00;99404.45;106364;1251;72208;-85
2023/12/13 07:21:39;;;;;;;63.90;33.30;;;;;;;1.62;100.00;99404.89;107463;1253;71408;-84
2023/12/13 07:24:22;;;;;;;63.60;34.00;;;;;;;1.70;100.00;99404.61;107640;1251;61128;-83
2023/12/13 07:27:00;;;;;;;66.90;34.80;;;;;;;1.72;100.00;99396.05;107751;1251;60550;-84
2023/12/13 07:30:10;;;;;;;65.40;34.00;;;;;;;1.68;100.00;99402.09;108834;1251;74173;-81
2023/12/13 07:32:47;;;;;;;68.80;35.10;;;;;;;1.66;100.00;99404.52;108068;1252;71198;-83
2023/12/13 07:35:23;;;;;;;62.60;33.60;;;;;;;1.74;100.00;99407.79;106966;1252;72682;-84
2023/12/13 07:37:51;;;;;;;66.20;34.20;;;;;;;1.82;100.00;99415.22;106173;1259;60499;-83
2023/12/13 07:40:23;;;;;;;64.50;35.90;;;;;;;1.78;100.00;99411.62;107072;1251;59986;-81
2023/12/13 07:42:59;;;;;;;69.50;35.40;;;;;;;1.76;100.00;99411.12;109491;1253;72849;-81
2023/12/13 07:45:32;;;;;;;59.80;33.30;;;;;;;1.83;100.00;99412.67;108565;1254;69566;-83
2023/12/13 07:49:03;;;;;;;62.10;33.10;;;;;;;1.93;100.00;99411.52;106284;1251;72827;-81
2023/12/13 07:51:31;;;;;;;68.10;35.60;;;;;;;1.88;100.00;99408.59;106101;1254;60534;-83
2023/12/13 07:54:00;;;;;;;62.40;33.60;;;;;;;1.83;100.00;99406.05;106116;1253;60542;-82
2023/12/13 07:56:28;;;;;;;59.90;33.80;;;;;;;1.87;99.95;99400.61;106056;1254;71569;-81
2023/12/13 07:58:58;;;;;;;59.90;33.40;;;;;;;1.93;99.49;99399.13;106124;1253;70404;-82
2023/12/13 08:01:27;;;;;;;64.10;34.80;;;;;;;1.86;99.07;99394.95;106132;1256;72374;-82
2023/12/13 08:03:56;;;;;;;70.60;35.40;;;;;;;1.80;99.89;99395.80;106143;1253;60400;-81
2023/12/13 08:06:23;;;;;;;73.50;38.70;;;;;;;1.83;99.92;99392.78;106575;1251;60425;-81
2023/12/13 08:08:51;;;;;;;75.30;38.80;;;;;;;1.95;99.72;99389.73;106936;1251;73865;-81
2023/12/13 08:11:17;;;;;;;73.70;39.60;;;;;;;1.97;99.97;99388.02;107189;1251;68813;-81
2023/12/13 08:13:44;;;;;;;72.20;38.90;;;;;;;1.94;99.93;99386.84;109227;1251;72827;-80
2023/12/13 08:16:12;;;;;;;68.50;36.20;;;;;;;2.00;99.84;99381.09;109031;1251;60301;-80
2023/12/13 08:18:38;;;;;;;67.30;36.50;;;;;;;2.15;99.44;99386.02;107894;1252;59217;-80
2023/12/13 08:21:06;;;;;;;70.10;39.80;;;;;;;2.15;99.30;99376.77;107557;1255;72381;-80
2023/12/13 08:23:34;;;;;;;69.70;37.50;;;;;;;2.14;99.52;99369.16;107771;1256;70074;-81
2023/12/13 08:26:01;;;;;;;66.00;35.70;;;;;;;2.20;99.68;99380.19;107278;1252;71084;-80
2023/12/13 08:28:29;;;;;;;75.80;38.40;;;;;;;2.30;98.74;99374.02;107075;1251;60518;-78
2023/12/13 08:30:56;;;;;;;70.30;38.80;;;;;;;2.36;98.73;99375.22;107612;1251;60409;-81
2023/12/13 08:33:41;;;;;;;66.00;36.60;;;;;;;2.35;98.69;99377.77;107416;1252;73967;-79
2023/12/13 08:36:11;;;;;;;69.00;36.50;;;;;;;2.32;98.24;99379.09;109081;1253;70381;-83
2023/12/13 08:38:41;;;;;;;58.10;33.80;;;;;;;2.37;97.64;99374.84;109490;1252;71040;-80
2023/12/13 08:41:09;;;;;;;55.70;32.10;;;;;;;2.44;97.73;99382.32;109216;1251;60448;-79
2023/12/13 08:43:36;;;;;;;63.00;35.20;;;;;;;2.42;97.72;99384.73;108287;1250;60361;-79
2023/12/13 08:46:03;;;;;;;58.10;30.60;;;;;;;2.35;97.95;99381.77;108588;1252;73630;-82
2023/12/13 08:48:50;;;;;;;;;;;;;;;;;;;;;
2023/12/13 08:51:43;;;;;;;48.50;27.80;;;;;;;2.39;97.07;99394.92;109519;1251;71375;-81
2023/12/13 08:54:10;;;;;;;49.70;29.90;;;;;;;2.32;96.88;99384.63;109620;1251;59084;-81
2023/12/13 08:56:37;;;;;;;52.30;29.60;;;;;;;2.25;97.25;99379.79;109506;1251;58883;-82
2023/12/13 08:59:04;;;;;;;51.90;29.70;;;;;;;2.30;96.81;99378.36;109467;1251;72414;-81
2023/12/13 09:01:30;;;;;;;56.70;32.40;;;;;;;2.35;96.48;99378.28;109595;1252;68901;-80
2023/12/13 09:03:57;;;;;;;54.70;33.30;;;;;;;2.34;96.72;99376.10;109578;1251;71210;-80
2023/12/13 09:06:24;;;;;;;53.70;29.30;;;;;;;2.34;96.95;99371.23;109503;1251;58614;-79
2023/12/13 09:08:51;;;;;;;50.80;30.00;;;;;;;2.42;96.36;99379.87;109443;1257;58822;-80
2023/12/13 09:11:18;;;;;;;50.50;30.00;;;;;;;2.49;96.27;99382.58;109577;1253;72495;-82
2023/12/13 09:13:45;;;;;;;55.60;32.90;;;;;;;2.50;96.38;99379.70;109483;1251;68686;-80
2023/12/13 09:16:12;;;;;;;57.90;33.60;;;;;;;2.48;96.80;99370.06;109609;1251;70331;-79
2023/12/13 09:18:43;;;;;;;57.30;32.10;;;;;;;2.55;96.77;99373.15;109426;1252;59605;-80
2023/12/13 09:21:10;;;;;;;55.50;31.90;;;;;;;2.71;96.41;99376.27;109591;1251;59029;-78
2023/12/13 09:23:39;;;;;;;52.00;31.40;;;;;;;2.82;95.69;99381.83;109584;1251;72982;-79
2023/12/13 09:26:14;;;;;;;62.40;34.70;;;;;;;2.82;95.73;99380.39;109493;1251;69528;-80
2023/12/13 09:28:41;;;;;;;63.60;35.70;;;;;;;2.82;95.72;99381.30;109367;1251;71467;-81
2023/12/13 09:31:08;;;;;;;69.20;37.60;;;;;;;2.87;95.88;99381.55;107643;1251;61104;-80
2023/12/13 09:33:35;;;;;;;53.80;32.50;;;;;;;2.95;94.76;99375.45;107787;1256;60348;-81
2023/12/13 09:36:03;;;;;;;57.40;33.50;;;;;;;2.98;93.86;99379.42;107347;1253;74742;-81
2023/12/13 09:38:30;;;;;;;61.30;36.80;;;;;;;2.89;93.83;99377.92;107367;1253;70173;-81
2023/12/13 09:40:57;;;;;;;56.40;34.00;;;;;;;2.80;94.15;99377.05;106729;1256;71439;-81
2023/12/13 09:43:25;;;;;;;54.40;32.10;;;;;;;2.74;93.99;99378.40;107057;1251;60831;-81
2023/12/13 09:45:53;;;;;;;53.20;33.30;;;;;;;2.80;93.60;99379.14;106769;1253;60444;-81
2023/12/13 09:48:23;;;;;;;61.90;35.00;;;;;;;2.82;93.42;99376.89;107553;1252;73952;-78
2023/12/13 09:50:54;;;;;;;64.50;37.70;;;;;;;2.74;94.06;99380.52;108828;1257;70259;-80
2023/12/13 09:53:21;;;;;;;60.70;35.20;;;;;;;2.66;94.84;99377.52;106295;1256;71502;-81
2023/12/13 09:55:48;;;;;;;57.20;35.10;;;;;;;2.64;95.40;99384.69;105945;1257;61029;-82
2023/12/13 09:58:15;;;;;;;52.70;33.00;;;;;;;2.68;95.27;99381.56;106395;1253;60436;-80
2023/12/13 10:00:43;;;;;;;54.10;33.30;;;;;;;2.66;95.24;99385.27;106091;1253;73819;-80
2023/12/13 10:03:10;;;;;;;58.00;35.30;;;;;;;2.55;95.28;99383.34;106281;1252;70182;-79
2023/12/13 10:05:40;;;;;;;57.90;33.00;;;;;;;2.47;96.01;99387.67;105978;1256;72533;-78
2023/12/13 10:08:11;;;;;;;52.00;30.10;;;;;;;2.48;96.19;99381.75;105802;1258;60598;-79
2023/12/13 10:10:39;;;;;;;59.40;32.30;;;;;;;2.52;96.09;99377.73;105920;1251;60518;-79
2023/12/13 10:13:09;;;;;;;54.40;33.10;;;;;;;2.46;96.12;99372.12;105885;1253;73943;-78
2023/12/13 10:15:36;;;;;;;57.60;33.00;;;;;;;2.42;96.66;99363.79;105986;1253;70228;-79
2023/12/13 10:18:05;;;;;;;51.60;31.20;;;;;;;2.42;96.45;99356.09;106004;1251;71418;-79
2023/12/13 10:20:34;;;;;;;58.40;33.70;;;;;;;2.49;95.92;99355.30;105960;1253;62502;-79
2023/12/13 10:23:05;;;;;;;59.30;34.80;;;;;;;2.52;95.95;99350.71;106449;1251;60404;-79
2023/12/13 10:25:33;;;;;;;60.50;36.30;;;;;;;2.51;96.29;99350.95;109169;1253;72371;-80
2023/12/13 10:28:03;;;;;;;63.80;37.20;;;;;;;2.51;96.66;99348.69;108331;1258;68923;-80
2023/12/13 10:30:32;;;;;;;60.80;34.80;;;;;;;2.61;96.64;99343.84;106324;1256;71427;-80
2023/12/13 10:32:59;;;;;;;56.80;33.30;;;;;;;2.72;95.95;99343.56;106819;1251;60444;-80
2023/12/13 10:35:26;;;;;;;59.50;35.60;;;;;;;2.78;96.42;99344.89;106595;1255;60399;-81
2023/12/13 10:37:55;;;;;;;62.60;35.00;;;;;;;2.78;96.14;99347.88;106495;1254;72787;-80
2023/12/13 10:40:22;;;;;;;49.30;30.90;;;;;;;2.78;96.04;99342.27;106349;1252;70053;-80
2023/12/13 10:42:52;;;;;;;56.60;32.80;;;;;;;2.83;95.00;99340.63;105851;1252;71396;-81
2023/12/13 10:45:20;;;;;;;53.40;34.00;;;;;;;2.85;94.79;99337.85;106071;1251;60590;-80
2023/12/13 10:47:47;;;;;;;56.00;34.10;;;;;;;2.80;94.65;99334.79;106042;1256;60323;-83
2023/12/13 10:50:15;;;;;;;60.30;36.10;;;;;;;2.74;94.95;99336.15;106297;1253;73848;-81
2023/12/13 10:52:42;;;;;;;57.10;34.80;;;;;;;2.69;94.47;99337.05;106224;1253;70362;-80
2023/12/13 10:55:09;;;;;;;53.90;33.20;;;;;;;2.72;94.34;99330.98;105901;1258;71849;-82
2023/12/13 10:57:36;;;;;;;51.90;33.10;;;;;;;2.79;94.02;99325.41;106210;1255;60408;-80
2023/12/13 11:00:06;;;;;;;60.70;35.00;;;;;;;2.78;94.47;99326.54;106356;1251;60967;-81
2023/12/13 11:02:43;;;;;;;55.70;36.00;;;;;;;2.75;94.77;99318.35;106393;1254;73832;-81
2023/12/13 11:05:10;;;;;;;53.90;32.40;;;;;;;2.74;94.90;99324.20;105991;1258;69242;-80
2023/12/13 11:07:44;;;;;;;52.20;32.50;;;;;;;2.82;94.61;99323.20;105962;1253;71382;-81
2023/12/13 11:10:15;;;;;;;53.70;32.70;;;;;;;2.88;93.48;99328.48;106140;1256;60457;-81
2023/12/13 11:12:46;;;;;;;59.90;35.70;;;;;;;2.79;93.51;99333.42;106052;1253;60520;-82
2023/12/13 11:15:14;;;;;;;54.80;33.00;;;;;;;2.71;94.06;99337.56;106051;1253;73881;-81
2023/12/13 11:17:45;;;;;;;50.00;30.80;;;;;;;2.73;94.27;99345.98;107133;1253;70669;-82
2023/12/13 11:20:14;;;;;;;46.60;29.10;;;;;;;2.84;93.63;99341.42;109279;1253;72522;-82
2023/12/13 11:22:45;;;;;;;52.30;31.20;;;;;;;2.89;93.14;99334.13;108566;1253;58903;-82